createdAt,value
2022-12-31T00:02:14.452Z,60.49
2022-12-31T00:04:42.997Z,60.17
2022-12-31T00:07:12.441Z,60.01
2022-12-31T00:09:40.562Z,60.13
2022-12-31T00:12:08.884Z,59.97
2022-12-31T00:14:37.038Z,60.47
2022-12-31T00:17:05.091Z,60.18
2022-12-31T00:19:33.328Z,59.97
2022-12-31T00:22:01.266Z,59.90
2022-12-31T00:24:31.184Z,59.89
2022-12-31T00:26:59.652Z,59.82
2022-12-31T00:29:27.727Z,59.89
2022-12-31T00:31:55.821Z,59.91
2022-12-31T00:34:24.536Z,59.74
2022-12-31T00:36:53.918Z,59.66
2022-12-31T00:39:22.031Z,59.90
2022-12-31T00:41:51.748Z,60.27
2022-12-31T00:44:19.901Z,60.13
2022-12-31T00:46:48.425Z,60.17
2022-12-31T00:49:17.281Z,60.51
2022-12-31T00:51:46.721Z,60.42
2022-12-31T00:54:15.706Z,60.39
2022-12-31T00:56:44.019Z,60.53
2022-12-31T00:59:13.367Z,60.32
2022-12-31T01:01:41.849Z,60.46
2022-12-31T01:04:12.284Z,60.45
2022-12-31T01:06:41.073Z,60.24
2022-12-31T01:09:10.001Z,60.60
2022-12-31T01:11:38.810Z,60.71
2022-12-31T01:14:09.336Z,61.00
2022-12-31T01:16:41.778Z,61.12
2022-12-31T01:19:12.644Z,61.45
2022-12-31T01:21:42.143Z,61.30
2022-12-31T01:24:12.405Z,60.90
2022-12-31T01:26:41.024Z,61.52
2022-12-31T01:29:10.422Z,61.75
2022-12-31T01:31:40.364Z,61.58
2022-12-31T01:34:09.323Z,61.61
2022-12-31T01:36:38.151Z,61.42
2022-12-31T01:39:08.450Z,62.20
2022-12-31T01:41:38.881Z,63.06
2022-12-31T01:44:40.605Z,62.68
2022-12-31T01:47:15.394Z,62.98
2022-12-31T01:49:47.360Z,62.23
2022-12-31T01:52:20.597Z,61.79
2022-12-31T01:54:53.851Z,62.13
2022-12-31T01:57:23.571Z,62.19
2022-12-31T01:59:52.795Z,61.79
2022-12-31T02:02:22.306Z,62.13
2022-12-31T02:04:52.440Z,62.02
2022-12-31T02:07:20.723Z,62.22
2022-12-31T02:09:48.836Z,61.78
2022-12-31T02:12:17.340Z,61.64
2022-12-31T02:14:49.099Z,61.57
2022-12-31T02:17:29.759Z,61.97
2022-12-31T02:20:43.929Z,61.82
2022-12-31T02:23:33.893Z,62.20
2022-12-31T02:26:26.143Z,62.50
2022-12-31T02:29:17.927Z,62.21
2022-12-31T02:31:53.159Z,62.10
2022-12-31T02:34:28.408Z,61.67
2022-12-31T02:37:01.225Z,62.33
2022-12-31T02:39:31.137Z,62.28
2022-12-31T02:42:01.637Z,62.71
2022-12-31T02:44:31.699Z,62.28
2022-12-31T02:47:14.503Z,62.33
2022-12-31T02:49:52.312Z,62.84
2022-12-31T02:52:29.203Z,62.95
2022-12-31T02:55:09.591Z,63.05
2022-12-31T02:57:43.472Z,62.84
2022-12-31T03:00:31.775Z,62.95
2022-12-31T03:03:04.019Z,62.71
2022-12-31T03:05:35.595Z,62.64
2022-12-31T03:08:03.784Z,62.51
2022-12-31T03:10:31.976Z,62.50
2022-12-31T03:12:59.353Z,62.54
2022-12-31T03:15:29.743Z,63.12
2022-12-31T03:18:02.638Z,62.82
2022-12-31T03:20:51.445Z,63.01
2022-12-31T03:23:22.597Z,63.05
2022-12-31T03:25:50.375Z,63.68
2022-12-31T03:28:20.156Z,63.06
2022-12-31T03:30:50.712Z,63.20
2022-12-31T03:33:21.774Z,63.28
2022-12-31T03:35:50.990Z,63.16
2022-12-31T03:38:20.593Z,63.21
2022-12-31T03:40:51.432Z,63.34
2022-12-31T03:43:20.668Z,63.20
2022-12-31T03:45:51.336Z,63.31
2022-12-31T03:48:22.543Z,63.53
2022-12-31T03:50:51.025Z,63.90
2022-12-31T03:53:19.459Z,63.31
2022-12-31T03:55:52.188Z,63.13
2022-12-31T03:58:20.647Z,63.53
2022-12-31T04:00:48.783Z,63.58
2022-12-31T04:03:17.465Z,63.53
2022-12-31T04:05:53.423Z,63.71
2022-12-31T04:08:21.766Z,63.93
2022-12-31T04:10:50.672Z,63.95
2022-12-31T04:13:18.776Z,63.75
2022-12-31T04:15:51.630Z,64.00
2022-12-31T04:18:20.136Z,64.01
2022-12-31T04:20:50.164Z,63.97
2022-12-31T04:23:18.449Z,63.95
2022-12-31T04:25:46.771Z,63.85
2022-12-31T04:28:15.315Z,63.66
2022-12-31T04:30:44.428Z,64.24
2022-12-31T04:33:12.610Z,63.81
2022-12-31T04:35:40.946Z,63.61
2022-12-31T04:38:10.443Z,63.93
2022-12-31T04:40:58.614Z,64.01
2022-12-31T04:43:27.079Z,64.13
2022-12-31T04:45:55.169Z,64.58
2022-12-31T04:48:23.240Z,64.07
2022-12-31T04:50:51.638Z,64.56
2022-12-31T04:53:21.334Z,64.24
2022-12-31T04:55:49.394Z,64.92
2022-12-31T04:58:18.095Z,64.84
2022-12-31T05:00:50.019Z,64.63
2022-12-31T05:03:19.163Z,64.93
2022-12-31T05:05:47.428Z,65.09
2022-12-31T05:08:17.966Z,65.06
2022-12-31T05:10:49.416Z,65.05
2022-12-31T05:13:17.777Z,64.60
2022-12-31T05:15:47.210Z,65.09
2022-12-31T05:18:15.711Z,64.48
2022-12-31T05:20:43.835Z,64.41
2022-12-31T05:23:12.113Z,63.97
2022-12-31T05:25:40.687Z,64.94
2022-12-31T05:28:10.375Z,64.86
2022-12-31T05:30:38.839Z,65.22
2022-12-31T05:33:07.272Z,64.26
2022-12-31T05:35:35.358Z,64.38
2022-12-31T05:38:03.414Z,64.29
2022-12-31T05:40:32.529Z,64.54
2022-12-31T05:43:00.672Z,63.91
2022-12-31T05:45:31.112Z,64.61
2022-12-31T05:48:00.011Z,64.47
2022-12-31T05:50:28.244Z,64.47
2022-12-31T05:52:56.656Z,63.52
2022-12-31T05:55:25.366Z,63.38
2022-12-31T05:57:53.742Z,63.57
2022-12-31T06:00:22.040Z,63.27
2022-12-31T06:02:51.804Z,63.20
2022-12-31T06:05:25.842Z,63.04
2022-12-31T06:07:54.761Z,63.01
2022-12-31T06:10:23.807Z,63.02
2022-12-31T06:12:52.541Z,62.98
2022-12-31T06:15:21.386Z,63.14
2022-12-31T06:17:50.754Z,63.13
2022-12-31T06:20:18.919Z,63.37
2022-12-31T06:22:47.135Z,63.60
2022-12-31T06:25:15.421Z,63.11
2022-12-31T06:27:43.446Z,63.05
2022-12-31T06:30:12.995Z,62.62
2022-12-31T06:32:42.227Z,62.81
2022-12-31T06:35:11.993Z,62.67
2022-12-31T06:37:40.636Z,62.58
2022-12-31T06:40:09.905Z,62.78
2022-12-31T06:42:38.071Z,62.49
2022-12-31T06:45:07.668Z,62.49
2022-12-31T06:47:36.658Z,62.37
2022-12-31T06:50:07.017Z,62.28
2022-12-31T06:52:36.853Z,62.19
2022-12-31T06:55:05.798Z,62.00
2022-12-31T06:57:34.304Z,62.24
2022-12-31T07:00:03.289Z,62.44
2022-12-31T07:02:50.941Z,61.89
2022-12-31T07:05:37.931Z,61.90
2022-12-31T07:08:21.461Z,61.52
2022-12-31T07:10:54.653Z,61.84
2022-12-31T07:13:46.177Z,61.90
2022-12-31T07:16:27.858Z,62.45
2022-12-31T07:19:03.411Z,61.41
2022-12-31T07:21:36.170Z,61.62
2022-12-31T07:24:07.528Z,61.83
2022-12-31T07:26:56.384Z,61.94
2022-12-31T07:29:37.313Z,61.39
2022-12-31T07:32:11.974Z,61.90
2022-12-31T07:34:52.055Z,61.82
2022-12-31T07:37:30.531Z,61.58
2022-12-31T07:40:10.215Z,61.76
2022-12-31T07:42:52.507Z,61.17
2022-12-31T07:45:25.730Z,61.73
2022-12-31T07:48:00.521Z,61.78
2022-12-31T07:50:31.573Z,62.19
2022-12-31T07:53:00.576Z,61.38
2022-12-31T07:55:30.272Z,61.76
2022-12-31T07:58:09.954Z,61.18
2022-12-31T08:00:43.071Z,61.80
2022-12-31T08:03:26.249Z,61.22
2022-12-31T08:06:11.523Z,61.96
2022-12-31T08:08:50.764Z,61.27
2022-12-31T08:11:29.179Z,61.75
2022-12-31T08:14:02.289Z,61.21
2022-12-31T08:16:31.085Z,61.32
2022-12-31T08:19:00.491Z,61.24
2022-12-31T08:21:41.103Z,61.00
2022-12-31T08:24:21.294Z,60.63
2022-12-31T08:27:01.295Z,60.51
2022-12-31T08:29:39.105Z,60.30
2022-12-31T08:32:38.808Z,60.28
2022-12-31T08:35:24.385Z,60.22
2022-12-31T08:38:00.642Z,59.66
2022-12-31T08:40:35.914Z,59.52
2022-12-31T08:43:22.316Z,59.61
2022-12-31T08:45:53.413Z,58.88
2022-12-31T08:48:28.328Z,59.39
2022-12-31T08:50:57.465Z,58.79
2022-12-31T08:53:26.538Z,58.52
2022-12-31T08:56:01.765Z,58.31
2022-12-31T08:58:42.155Z,58.53
2022-12-31T09:01:12.382Z,57.90
2022-12-31T09:03:59.030Z,58.47
2022-12-31T09:06:30.742Z,57.31
2022-12-31T09:09:04.566Z,57.74
2022-12-31T09:11:39.803Z,57.45
2022-12-31T09:14:22.629Z,57.27
2022-12-31T09:17:03.903Z,56.80
2022-12-31T09:19:32.244Z,57.10
2022-12-31T09:22:01.080Z,57.67
2022-12-31T09:24:32.427Z,57.86
2022-12-31T09:27:44.959Z,56.68
2022-12-31T09:30:22.734Z,56.30
2022-12-31T09:33:02.027Z,56.69
2022-12-31T09:35:37.153Z,56.16
2022-12-31T09:38:12.103Z,56.36
2022-12-31T09:40:57.095Z,56.98
2022-12-31T09:44:13.121Z,56.50
2022-12-31T09:47:29.347Z,55.78
2022-12-31T09:50:21.735Z,55.70
2022-12-31T09:53:24.758Z,56.26
2022-12-31T09:55:58.018Z,56.33
2022-12-31T09:58:36.101Z,57.20
2022-12-31T10:01:14.710Z,56.16
2022-12-31T10:04:42.912Z,56.48
2022-12-31T10:07:30.026Z,54.63
2022-12-31T10:10:08.382Z,54.57
2022-12-31T10:12:58.072Z,54.07
2022-12-31T10:15:43.213Z,53.91
2022-12-31T10:18:24.647Z,54.24
2022-12-31T10:21:07.337Z,53.92
2022-12-31T10:23:55.569Z,53.54
2022-12-31T10:26:37.877Z,53.16
2022-12-31T10:29:20.066Z,53.19
2022-12-31T10:32:03.411Z,53.58
2022-12-31T10:34:46.244Z,52.86
2022-12-31T10:37:18.451Z,52.55
2022-12-31T10:40:01.032Z,53.30
2022-12-31T10:42:43.535Z,51.90
2022-12-31T10:45:44.910Z,53.18
2022-12-31T10:48:45.629Z,52.25
2022-12-31T10:51:54.965Z,52.18
2022-12-31T10:55:10.735Z,52.00
2022-12-31T10:58:03.801Z,51.92
2022-12-31T11:00:39.758Z,51.35
2022-12-31T11:03:53.390Z,51.69
2022-12-31T11:07:05.588Z,50.61
2022-12-31T11:09:58.291Z,49.98
2022-12-31T11:12:59.753Z,50.85
2022-12-31T11:16:06.184Z,49.97
2022-12-31T11:18:44.493Z,50.19
2022-12-31T11:21:30.565Z,50.07
2022-12-31T11:24:06.384Z,50.05
2022-12-31T11:26:51.245Z,52.05
2022-12-31T11:29:33.763Z,50.86
2022-12-31T11:32:13.533Z,51.74
2022-12-31T11:35:04.322Z,52.41
2022-12-31T11:37:41.812Z,51.06
2022-12-31T11:40:33.434Z,51.59
2022-12-31T11:43:05.508Z,50.06
2022-12-31T11:45:55.218Z,51.91
2022-12-31T11:48:33.483Z,50.16
2022-12-31T11:51:19.608Z,51.45
2022-12-31T11:54:04.979Z,50.80
2022-12-31T11:56:38.408Z,50.52
2022-12-31T11:59:18.582Z,52.70
2022-12-31T12:01:56.968Z,50.98
2022-12-31T12:04:27.646Z,51.47
2022-12-31T12:06:56.520Z,52.67
2022-12-31T12:09:32.117Z,51.50
2022-12-31T12:12:03.271Z,50.04
2022-12-31T12:14:35.699Z,52.28
2022-12-31T12:17:09.232Z,52.29
2022-12-31T12:19:46.297Z,51.52
2022-12-31T12:22:21.814Z,50.97
2022-12-31T12:24:54.940Z,52.28
2022-12-31T12:27:25.179Z,50.25
2022-12-31T12:29:53.414Z,51.86
2022-12-31T12:32:24.988Z,51.63
2022-12-31T12:34:54.896Z,51.92
2022-12-31T12:37:32.117Z,52.00
2022-12-31T12:40:02.831Z,50.34
2022-12-31T12:42:32.125Z,51.64
2022-12-31T12:45:04.336Z,51.45
2022-12-31T12:47:32.697Z,51.76
2022-12-31T12:50:02.806Z,51.23
2022-12-31T12:52:47.977Z,50.63
2022-12-31T12:55:27.488Z,49.71
2022-12-31T12:58:05.486Z,50.57
2022-12-31T13:00:39.559Z,50.92
2022-12-31T13:03:33.210Z,51.28
2022-12-31T13:06:21.511Z,49.82
2022-12-31T13:09:06.557Z,50.07
2022-12-31T13:11:46.208Z,50.27
2022-12-31T13:14:22.080Z,50.97
2022-12-31T13:17:00.414Z,51.15
2022-12-31T13:19:36.652Z,50.24
2022-12-31T13:22:17.122Z,50.90
2022-12-31T13:25:00.447Z,50.66
2022-12-31T13:27:33.329Z,50.59
2022-12-31T13:30:03.837Z,50.61
2022-12-31T13:32:39.939Z,51.91
2022-12-31T13:35:24.033Z,51.07
2022-12-31T13:38:05.336Z,51.69
2022-12-31T13:40:42.038Z,51.43
2022-12-31T13:43:19.081Z,51.76
2022-12-31T13:45:54.370Z,51.81
2022-12-31T13:48:30.563Z,52.33
2022-12-31T13:51:02.768Z,51.81
2022-12-31T13:53:38.023Z,52.54
2022-12-31T13:56:14.057Z,52.53
2022-12-31T13:58:46.866Z,52.38
2022-12-31T14:01:19.506Z,52.23
2022-12-31T14:03:57.444Z,52.57
2022-12-31T14:06:33.594Z,52.83
2022-12-31T14:09:03.539Z,52.82
2022-12-31T14:11:55.778Z,53.12
2022-12-31T14:14:33.623Z,51.89
2022-12-31T14:17:11.061Z,52.36
2022-12-31T14:19:55.276Z,52.67
2022-12-31T14:22:31.011Z,52.80
2022-12-31T14:25:03.361Z,52.39
2022-12-31T14:27:35.958Z,52.28
2022-12-31T14:30:07.582Z,52.97
2022-12-31T14:32:57.724Z,52.53
2022-12-31T14:35:41.875Z,51.80
2022-12-31T14:38:21.815Z,51.93
2022-12-31T14:41:01.481Z,52.58
2022-12-31T14:43:41.360Z,52.36
2022-12-31T14:46:19.675Z,52.57
2022-12-31T14:48:57.182Z,52.67
2022-12-31T14:51:29.351Z,53.17
2022-12-31T14:53:59.138Z,53.49
2022-12-31T14:56:39.033Z,54.26
2022-12-31T14:59:24.997Z,53.96
2022-12-31T15:01:54.021Z,53.45
2022-12-31T15:04:33.632Z,54.33
2022-12-31T15:07:15.553Z,54.38
2022-12-31T15:09:58.364Z,54.29
2022-12-31T15:12:44.027Z,54.39
2022-12-31T15:15:33.500Z,54.03
2022-12-31T15:18:19.059Z,53.89
2022-12-31T15:21:25.284Z,53.83
2022-12-31T15:23:53.821Z,54.47
2022-12-31T15:26:25.151Z,54.11
2022-12-31T15:29:04.970Z,54.44
2022-12-31T15:31:35.468Z,54.30
2022-12-31T15:34:05.703Z,54.55
2022-12-31T15:36:35.801Z,55.02
2022-12-31T15:39:25.634Z,54.65
2022-12-31T15:44:50.315Z,55.33
2022-12-31T15:47:29.156Z,55.20
2022-12-31T15:50:01.300Z,55.00
2022-12-31T15:52:37.360Z,55.33
2022-12-31T15:55:07.296Z,55.19
2022-12-31T15:57:40.173Z,54.90
2022-12-31T16:00:17.712Z,55.71
2022-12-31T16:02:47.511Z,55.81
2022-12-31T16:05:21.337Z,55.71
2022-12-31T16:07:50.057Z,55.28
2022-12-31T16:10:24.659Z,55.30
2022-12-31T16:12:55.692Z,55.23
2022-12-31T16:15:28.695Z,55.09
2022-12-31T16:18:05.477Z,55.56
2022-12-31T16:20:35.613Z,54.89
2022-12-31T16:23:17.735Z,54.76
2022-12-31T16:25:46.697Z,55.33
2022-12-31T16:28:19.494Z,54.67
2022-12-31T16:31:00.281Z,54.56
2022-12-31T16:33:29.088Z,54.38
2022-12-31T16:35:58.752Z,54.56
2022-12-31T16:38:32.985Z,54.86
2022-12-31T16:41:20.033Z,54.78
2022-12-31T16:43:51.506Z,54.73
2022-12-31T16:46:26.661Z,54.81
2022-12-31T16:48:58.031Z,54.87
2022-12-31T16:51:30.187Z,55.11
2022-12-31T16:53:59.326Z,55.06
2022-12-31T16:56:32.808Z,55.04
2022-12-31T16:59:03.531Z,54.80
2022-12-31T17:01:36.609Z,54.93
2022-12-31T17:04:10.128Z,54.69
2022-12-31T17:06:38.829Z,54.87
2022-12-31T17:09:14.028Z,54.92
2022-12-31T17:11:51.502Z,54.82
2022-12-31T17:14:23.685Z,54.98
2022-12-31T17:17:03.066Z,54.87
2022-12-31T17:19:41.461Z,54.84
2022-12-31T17:22:14.132Z,55.01
2022-12-31T17:24:42.619Z,55.61
2022-12-31T17:27:11.628Z,55.37
2022-12-31T17:29:39.785Z,55.49
2022-12-31T17:32:31.124Z,55.33
2022-12-31T17:34:59.696Z,55.60
2022-12-31T17:37:29.719Z,55.62
2022-12-31T17:40:17.383Z,55.92
2022-12-31T17:42:49.825Z,55.88
2022-12-31T17:45:22.249Z,55.88
2022-12-31T17:47:55.661Z,55.62
2022-12-31T17:50:26.082Z,55.77
2022-12-31T17:52:58.338Z,56.13
2022-12-31T17:55:28.090Z,55.98
2022-12-31T17:57:58.336Z,55.38
2022-12-31T18:00:28.043Z,55.98
2022-12-31T18:02:57.895Z,55.53
2022-12-31T18:05:26.772Z,55.30
2022-12-31T18:07:55.257Z,55.81
2022-12-31T18:10:26.088Z,55.94
2022-12-31T18:12:54.575Z,55.75
2022-12-31T18:15:24.829Z,55.89
2022-12-31T18:17:53.207Z,55.84
2022-12-31T18:20:22.839Z,55.91
2022-12-31T18:22:51.489Z,55.74
2022-12-31T18:25:22.846Z,55.57
2022-12-31T18:27:52.428Z,55.42
2022-12-31T18:30:20.926Z,55.32
2022-12-31T18:32:49.104Z,55.05
2022-12-31T18:36:06.559Z,54.92
2022-12-31T18:38:13.638Z,54.81
2022-12-31T18:40:46.441Z,54.84
2022-12-31T18:43:17.402Z,54.74
2022-12-31T18:45:45.687Z,55.14
2022-12-31T18:48:14.318Z,55.51
2022-12-31T18:50:43.319Z,55.19
2022-12-31T18:53:18.386Z,54.70
2022-12-31T18:55:49.812Z,54.71
2022-12-31T18:58:17.925Z,54.86
2022-12-31T19:00:47.496Z,54.85
2022-12-31T19:03:17.140Z,54.83
2022-12-31T19:05:49.605Z,54.95
2022-12-31T19:08:20.080Z,54.85
2022-12-31T19:10:49.320Z,54.92
2022-12-31T19:13:19.942Z,54.81
2022-12-31T19:15:49.718Z,54.67
2022-12-31T19:18:18.395Z,54.64
2022-12-31T19:20:47.082Z,54.92
2022-12-31T19:23:17.809Z,54.90
2022-12-31T19:25:49.355Z,54.83
2022-12-31T19:28:19.492Z,55.27
2022-12-31T19:30:48.526Z,54.85
2022-12-31T19:33:17.098Z,54.47
2022-12-31T19:35:45.496Z,54.77
2022-12-31T19:38:18.332Z,54.41
2022-12-31T19:40:48.336Z,54.48
2022-12-31T19:43:18.037Z,54.53
2022-12-31T19:45:47.052Z,54.26
2022-12-31T19:48:17.495Z,54.25
2022-12-31T19:50:48.212Z,54.48
2022-12-31T19:53:18.761Z,54.52
2022-12-31T19:55:49.391Z,54.38
2022-12-31T19:58:19.254Z,54.47
2022-12-31T20:00:54.577Z,54.53
2022-12-31T20:03:25.639Z,54.30
2022-12-31T20:06:02.686Z,54.51
2022-12-31T20:08:31.189Z,54.11
2022-12-31T20:11:08.316Z,54.21
2022-12-31T20:13:36.786Z,54.12
2022-12-31T20:16:07.787Z,54.44
2022-12-31T20:18:37.967Z,53.98
2022-12-31T20:21:10.365Z,53.87
2022-12-31T20:23:40.894Z,54.23
2022-12-31T20:26:10.827Z,54.23
2022-12-31T20:28:38.901Z,54.15
2022-12-31T20:31:08.076Z,54.22
2022-12-31T20:33:36.927Z,54.04
2022-12-31T20:36:06.638Z,53.85
2022-12-31T20:38:35.022Z,53.72
2022-12-31T20:41:04.912Z,53.94
2022-12-31T20:43:35.171Z,54.14
2022-12-31T20:46:12.621Z,53.86
2022-12-31T20:48:43.189Z,54.13
2022-12-31T20:51:11.486Z,54.14
2022-12-31T20:53:39.506Z,53.86
2022-12-31T20:56:08.739Z,53.98
2022-12-31T20:58:38.386Z,53.86
2022-12-31T21:01:08.476Z,53.99
2022-12-31T21:04:04.514Z,53.78
2022-12-31T21:06:26.013Z,53.76
2022-12-31T21:08:55.744Z,53.99
2022-12-31T21:11:41.428Z,53.68
2022-12-31T21:14:11.045Z,53.63
2022-12-31T21:16:39.127Z,53.76
2022-12-31T21:19:07.376Z,53.65
2022-12-31T21:21:35.673Z,53.71
2022-12-31T21:24:03.820Z,53.86
2022-12-31T21:26:31.813Z,53.79
2022-12-31T21:29:00.310Z,53.64
2022-12-31T21:31:29.679Z,53.63
2022-12-31T21:33:57.832Z,53.82
2022-12-31T21:36:26.133Z,53.93
2022-12-31T21:38:54.228Z,53.63
2022-12-31T21:41:39.715Z,53.59
2022-12-31T21:44:08.197Z,53.96
2022-12-31T21:46:37.663Z,53.91
2022-12-31T21:49:05.898Z,53.84
2022-12-31T21:51:54.745Z,53.84
2022-12-31T21:54:36.952Z,53.93
2022-12-31T21:57:06.571Z,53.59
2022-12-31T22:00:16.160Z,53.56
2022-12-31T22:03:00.175Z,53.50
2022-12-31T22:05:28.436Z,53.22
2022-12-31T22:07:56.698Z,53.51
2022-12-31T22:10:24.888Z,53.10
2022-12-31T22:12:53.065Z,53.30
2022-12-31T22:15:21.815Z,52.96
2022-12-31T22:17:51.234Z,53.13
2022-12-31T22:20:28.150Z,52.77
2022-12-31T22:22:57.114Z,52.82
2022-12-31T22:25:25.206Z,52.60
2022-12-31T22:28:27.617Z,52.85
2022-12-31T22:30:41.640Z,52.65
2022-12-31T22:33:10.930Z,52.24
2022-12-31T22:35:38.888Z,52.31
2022-12-31T22:38:11.914Z,52.00
2022-12-31T22:40:40.423Z,51.84
2022-12-31T22:43:08.603Z,51.90
2022-12-31T22:45:37.465Z,51.48
2022-12-31T22:48:06.013Z,51.83
2022-12-31T22:50:35.779Z,51.84
2022-12-31T22:53:03.816Z,51.40
2022-12-31T22:55:32.019Z,51.86
2022-12-31T22:58:00.393Z,51.54
2022-12-31T23:00:43.909Z,51.92
2022-12-31T23:03:32.335Z,50.57
2022-12-31T23:06:01.892Z,51.73
2022-12-31T23:08:30.248Z,51.69
2022-12-31T23:11:01.566Z,51.65
2022-12-31T23:13:51.311Z,51.69
2022-12-31T23:16:38.808Z,51.48
2022-12-31T23:19:25.753Z,51.55
2022-12-31T23:22:13.204Z,51.37
2022-12-31T23:24:41.894Z,51.36
2022-12-31T23:27:10.917Z,51.32
2022-12-31T23:29:46.145Z,51.26
2022-12-31T23:32:16.295Z,51.15
2022-12-31T23:34:45.518Z,51.40
2022-12-31T23:37:15.626Z,51.37
2022-12-31T23:39:44.350Z,50.66
2022-12-31T23:42:12.395Z,51.08
2022-12-31T23:44:40.357Z,51.17
2022-12-31T23:47:09.027Z,50.84
2022-12-31T23:49:37.288Z,51.06
2022-12-31T23:52:05.426Z,50.85
2022-12-31T23:54:36.145Z,50.91
2022-12-31T23:57:04.555Z,50.60
2022-12-31T23:59:32.750Z,50.82
